DGIRL EDDM-EDDM

Flight info

Callsign DGIRL
Flight time 0h 22m
Altitude 2000
Route VFR
Aircraft BE9L/L-SDE3FGHIRWY/S

Departure

Time 2026-05-06 17:37
Airport Munich Airport (EDDM)

Arrival

Time 2026-05-06 17:59
Airport Munich Airport (EDDM)
Time Latitude Longitude Altitude Speed Heading
2026-05-06 17:26 48.35789 11.80418 1462 ft 0 kts 173°
2026-05-06 17:30 48.35817 11.80341 1462 ft 20 kts 327°
2026-05-06 17:31 48.35869 11.80197 1462 ft 16 kts 280°
2026-05-06 17:31 48.35855 11.80038 1463 ft 12 kts 262°
2026-05-06 17:31 48.35845 11.79898 1464 ft 17 kts 264°
2026-05-06 17:31 48.35840 11.79822 1464 ft 3 kts 264°
2026-05-06 17:32 48.35837 11.79785 1464 ft 11 kts 261°
2026-05-06 17:32 48.35821 11.79589 1465 ft 15 kts 263°
2026-05-06 17:32 48.35722 11.79545 1466 ft 19 kts 173°
2026-05-06 17:32 48.35596 11.79564 1467 ft 18 kts 175°
2026-05-06 17:33 48.35477 11.79584 1468 ft 14 kts 171°
2026-05-06 17:33 48.35357 11.79607 1469 ft 20 kts 173°
2026-05-06 17:33 48.35199 11.79631 1469 ft 25 kts 173°
2026-05-06 17:33 48.35049 11.79657 1470 ft 23 kts 174°
2026-05-06 17:34 48.34907 11.79684 1470 ft 19 kts 174°
2026-05-06 17:34 48.34749 11.79709 1470 ft 26 kts 178°
2026-05-06 17:34 48.34619 11.79531 1471 ft 26 kts 232°
2026-05-06 17:34 48.34544 11.79379 1472 ft 13 kts 233°
2026-05-06 17:35 48.34494 11.79281 1473 ft 6 kts 235°
2026-05-06 17:35 48.34492 11.79277 1473 ft 0 kts 236°
2026-05-06 17:36 48.34456 11.79194 1473 ft 13 kts 234°
2026-05-06 17:36 48.34391 11.79059 1474 ft 17 kts 240°
2026-05-06 17:36 48.34357 11.78801 1475 ft 64 kts 259°
2026-05-06 17:36 48.34309 11.77825 1817 ft 113 kts 268°
2026-05-06 17:37 48.34315 11.76636 2220 ft 116 kts 274°
2026-05-06 17:37 48.34240 11.75387 2244 ft 133 kts 258°
2026-05-06 17:37 48.33883 11.73956 2223 ft 146 kts 240°
2026-05-06 17:37 48.32993 11.73329 2307 ft 157 kts 182°
2026-05-06 17:38 48.31932 11.73560 2156 ft 150 kts 166°
2026-05-06 17:38 48.31397 11.74675 2115 ft 141 kts 83°
2026-05-06 17:38 48.31554 11.76187 2171 ft 152 kts 72°
2026-05-06 17:38 48.31750 11.77769 2245 ft 150 kts 79°
2026-05-06 17:39 48.31864 11.79147 2378 ft 124 kts 81°
2026-05-06 17:39 48.31919 11.80478 2520 ft 146 kts 84°
2026-05-06 17:39 48.31910 11.82104 2947 ft 167 kts 92°
2026-05-06 17:39 48.31396 11.83748 2943 ft 188 kts 135°
2026-05-06 17:40 48.30298 11.84844 2947 ft 189 kts 166°
2026-05-06 17:40 48.29094 11.84567 2788 ft 175 kts 224°
2026-05-06 17:40 48.28771 11.83153 2564 ft 150 kts 297°
2026-05-06 17:40 48.29633 11.82666 2492 ft 146 kts 11°
2026-05-06 17:41 48.30329 11.83816 2283 ft 147 kts 70°
2026-05-06 17:41 48.30277 11.85200 2201 ft 128 kts 128°
2026-05-06 17:41 48.29564 11.85767 2109 ft 118 kts 173°
2026-05-06 17:41 48.28793 11.86258 2097 ft 136 kts 130°
2026-05-06 17:42 48.28994 11.87506 2482 ft 143 kts 16°
2026-05-06 17:42 48.30013 11.87713 2759 ft 160 kts 355°
2026-05-06 17:42 48.31150 11.87954 2998 ft 174 kts
2026-05-06 17:42 48.32349 11.88386 3282 ft 181 kts
2026-05-06 17:43 48.33611 11.88556 3309 ft 181 kts 342°
2026-05-06 17:43 48.34484 11.87491 3223 ft 159 kts 289°
2026-05-06 17:43 48.34823 11.85907 2534 ft 163 kts 278°
2026-05-06 17:43 48.34829 11.84398 2202 ft 118 kts 260°
2026-05-06 17:44 48.34679 11.83393 1940 ft 90 kts 258°
2026-05-06 17:44 48.34605 11.82460 1842 ft 87 kts 264°
2026-05-06 17:44 48.34573 11.81574 1674 ft 84 kts 262°
2026-05-06 17:44 48.34494 11.80701 1570 ft 85 kts 262°
2026-05-06 17:45 48.34435 11.79875 1474 ft 69 kts 266°
2026-05-06 17:45 48.34389 11.79272 1473 ft 72 kts 263°
2026-05-06 17:45 48.34301 11.78149 1593 ft 136 kts 262°
2026-05-06 17:45 48.34114 11.76532 1979 ft 174 kts 257°
2026-05-06 17:46 48.33859 11.75119 3604 ft 117 kts 255°
2026-05-06 17:46 48.33246 11.74433 3223 ft 144 kts 189°
2026-05-06 17:46 48.32275 11.74542 3001 ft 141 kts 175°
2026-05-06 17:46 48.31353 11.75132 2720 ft 155 kts 139°
2026-05-06 17:47 48.31062 11.76667 2604 ft 162 kts 82°
2026-05-06 17:47 48.31186 11.78441 2320 ft 177 kts 82°
2026-05-06 17:47 48.31387 11.80247 2290 ft 172 kts 74°
2026-05-06 17:47 48.31674 11.82001 2191 ft 173 kts 75°
2026-05-06 17:48 48.31931 11.83785 2086 ft 172 kts 74°
2026-05-06 17:48 48.32177 11.85506 2033 ft 169 kts 74°
2026-05-06 17:48 48.32441 11.87193 2021 ft 163 kts 73°
2026-05-06 17:48 48.32738 11.88903 2028 ft 176 kts 71°
2026-05-06 17:49 48.33132 11.90591 2395 ft 162 kts 52°
2026-05-06 17:49 48.33953 11.91509 2682 ft 154 kts
2026-05-06 17:49 48.35065 11.91763 2833 ft 166 kts 356°
2026-05-06 17:49 48.36230 11.91842 3041 ft 155 kts 343°
2026-05-06 17:50 48.36982 11.91216 3364 ft 117 kts 304°
2026-05-06 17:50 48.37277 11.90041 2881 ft 126 kts 271°
2026-05-06 17:50 48.37220 11.88749 2529 ft 122 kts 265°
2026-05-06 17:50 48.37146 11.87471 2183 ft 117 kts 258°
2026-05-06 17:51 48.36975 11.86285 2045 ft 119 kts 261°
2026-05-06 17:51 48.36902 11.85152 1863 ft 98 kts 261°
2026-05-06 17:51 48.36856 11.84157 1864 ft 99 kts 264°
2026-05-06 17:51 48.36767 11.83080 1830 ft 100 kts 261°
2026-05-06 17:52 48.36681 11.82095 1534 ft 94 kts 262°
2026-05-06 17:52 48.36619 11.81231 1452 ft 65 kts 264°
2026-05-06 17:52 48.36555 11.80349 1470 ft 120 kts 263°
2026-05-06 17:52 48.36480 11.78988 1791 ft 148 kts 264°
2026-05-06 17:53 48.36329 11.77379 2402 ft 168 kts 267°
2026-05-06 17:53 48.36778 11.75745 3006 ft 184 kts 309°
2026-05-06 17:53 48.37893 11.74972 3595 ft 168 kts 341°
2026-05-06 17:53 48.39008 11.75007 3415 ft 157 kts
2026-05-06 17:54 48.39988 11.75858 2990 ft 168 kts 38°
2026-05-06 17:54 48.40609 11.77271 2674 ft 169 kts 67°
2026-05-06 17:54 48.40778 11.78915 2462 ft 158 kts 90°
2026-05-06 17:54 48.40752 11.80548 2232 ft 146 kts 86°
2026-05-06 17:55 48.40737 11.81992 2013 ft 136 kts 92°
2026-05-06 17:55 48.40640 11.83395 2058 ft 126 kts 91°
2026-05-06 17:55 48.40618 11.84701 2075 ft 125 kts 87°
2026-05-06 17:55 48.40525 11.86064 2432 ft 127 kts 93°
2026-05-06 17:56 48.40450 11.87456 2639 ft 149 kts 93°
2026-05-06 17:56 48.40094 11.88808 2923 ft 144 kts 165°
2026-05-06 17:56 48.38926 11.88929 2892 ft 186 kts 186°
2026-05-06 17:56 48.37686 11.88714 2975 ft 162 kts 219°
2026-05-06 17:57 48.37162 11.87417 2592 ft 138 kts 255°
2026-05-06 17:57 48.36982 11.86206 2192 ft 105 kts 261°
2026-05-06 17:57 48.36915 11.85177 1936 ft 99 kts 265°
2026-05-06 17:57 48.36873 11.84099 1911 ft 108 kts 264°
2026-05-06 17:58 48.36776 11.82952 1823 ft 113 kts 259°
2026-05-06 17:58 48.36673 11.81908 1556 ft 89 kts 261°
2026-05-06 17:58 48.36609 11.81043 1464 ft 71 kts 263°
2026-05-06 17:58 48.36553 11.80326 1457 ft 80 kts 264°
2026-05-06 17:59 48.36435 11.79680 1460 ft 46 kts 239°
2026-05-06 17:59 48.36299 11.79404 1463 ft 24 kts 244°
2026-05-06 17:59 48.36280 11.79355 1463 ft 0 kts 231°
2026-05-06 18:00 48.36221 11.79298 1464 ft 21 kts 187°
2026-05-06 18:00 48.36047 11.79326 1465 ft 20 kts 175°
2026-05-06 18:00 48.35943 11.79342 1466 ft 0 kts 178°
2026-05-06 18:01 48.35938 11.79343 1466 ft 0 kts 178°
2026-05-06 18:01 48.35924 11.79351 1466 ft 11 kts 139°
2026-05-06 18:02 48.35822 11.79647 1465 ft 33 kts 83°
2026-05-06 18:02 48.35848 11.79945 1464 ft 3 kts 83°
2026-05-06 18:02 48.35850 11.79960 1464 ft 0 kts 81°
2026-05-06 18:02 48.35857 11.80050 1463 ft 22 kts 89°
2026-05-06 18:03 48.35873 11.80328 1462 ft 26 kts 144°
2026-05-06 18:03 48.35801 11.80425 1462 ft 6 kts 336°
2026-05-06 18:03 48.35788 11.80460 1462 ft 14 kts 216°
2026-05-06 18:03 48.35816 11.80475 1462 ft 2 kts 116°
2026-05-06 18:04 48.35800 11.80474 1462 ft 4 kts 193°
2026-05-06 18:04 48.35792 11.80473 1462 ft 0 kts 174°